Time;durP1;ratioP1;P1;durP2;ratioP2;P2;SDS_P1;SDS_P2;PMS_P1;PMS_P2;Temp;Humidity;BMP_temperature;BMP_pressure;BME280_temperature;BME280_humidity;BME280_pressure;Samples;Min_cycle;Max_cycle;Signal;HPM_P1;HPM_P2
2023/06/30 00:02:06;;;;;;;6.00;0.60;;;15.90;99.90;;;;;;5020126;28;20543;-80
2023/06/30 00:04:33;;;;;;;5.60;0.60;;;15.90;99.90;;;;;;5018568;28;20156;-81
2023/06/30 00:06:59;;;;;;;3.80;0.65;;;15.90;99.90;;;;;;5003650;28;20117;-80
2023/06/30 00:09:25;;;;;;;5.72;0.82;;;15.90;99.90;;;;;;5008570;28;20026;-80
2023/06/30 00:11:53;;;;;;;7.65;1.13;;;15.80;99.90;;;;;;4989296;28;20160;-81
2023/06/30 00:14:20;;;;;;;7.55;0.60;;;15.80;99.90;;;;;;5007474;28;20022;-80
2023/06/30 00:16:46;;;;;;;5.60;0.90;;;15.80;99.90;;;;;;5035785;28;20041;-80
2023/06/30 00:19:12;;;;;;;8.20;0.70;;;15.80;99.90;;;;;;5007700;28;20108;-80
2023/06/30 00:21:41;;;;;;;5.57;0.75;;;15.80;99.90;;;;;;5005112;28;20100;-80
2023/06/30 00:24:13;;;;;;;4.75;1.02;;;15.70;99.90;;;;;;5035226;28;20034;-80
2023/06/30 00:26:40;;;;;;;6.50;0.63;;;15.70;99.90;;;;;;5004819;28;20034;-79
2023/06/30 00:29:07;;;;;;;3.45;0.60;;;15.70;99.90;;;;;;5023887;28;20030;-80
2023/06/30 00:31:32;;;;;;;6.57;0.60;;;15.70;99.90;;;;;;5004365;28;20049;-80
2023/06/30 00:33:58;;;;;;;5.68;0.75;;;15.60;99.90;;;;;;5036989;28;20025;-80
2023/06/30 00:36:24;;;;;;;4.43;0.73;;;15.60;99.90;;;;;;5022779;28;20121;-80
2023/06/30 00:38:51;;;;;;;5.75;0.63;;;15.60;99.90;;;;;;5007749;28;20027;-81
2023/06/30 00:41:18;;;;;;;7.65;0.80;;;15.60;99.90;;;;;;4989344;28;20088;-80
2023/06/30 00:43:43;;;;;;;4.80;0.60;;;15.50;99.90;;;;;;5014571;28;20509;-80
2023/06/30 00:46:12;;;;;;;4.85;0.52;;;15.50;99.90;;;;;;4987197;28;20038;-79
2023/06/30 00:48:38;;;;;;;4.90;0.65;;;15.50;99.90;;;;;;5006441;28;20121;-80
2023/06/30 00:51:04;;;;;;;4.15;0.80;;;15.50;99.90;;;;;;5021532;28;20030;-80
2023/06/30 00:53:30;;;;;;;4.50;0.75;;;15.40;99.90;;;;;;5008298;28;20030;-81
2023/06/30 00:55:57;;;;;;;6.55;0.50;;;15.40;99.90;;;;;;5006788;28;20390;-81
2023/06/30 00:58:23;;;;;;;5.50;0.70;;;15.40;99.90;;;;;;4989137;28;20042;-80
2023/06/30 01:00:59;;;;;;;5.00;0.60;;;15.30;99.90;;;;;;5003531;28;20083;-80
2023/06/30 01:03:39;;;;;;;4.82;0.57;;;15.30;99.90;;;;;;5006021;28;20038;-80
2023/06/30 01:06:13;;;;;;;4.93;0.88;;;15.30;99.90;;;;;;5002409;28;20030;-79
2023/06/30 01:09:26;;;;;;;5.00;0.60;;;15.20;99.90;;;;;;5007039;28;20034;-81
2023/06/30 01:11:52;;;;;;;4.40;0.50;;;15.20;99.90;;;;;;4968312;28;20054;-80
2023/06/30 01:14:21;;;;;;;5.00;0.50;;;15.20;99.90;;;;;;5021087;28;20026;-80
2023/06/30 01:16:48;;;;;;;5.70;0.60;;;15.10;99.90;;;;;;5016507;28;20022;-80
2023/06/30 01:19:33;;;;;;;5.43;0.70;;;15.10;99.90;;;;;;5010708;28;20061;-79
2023/06/30 01:22:07;;;;;;;5.90;0.70;;;15.10;99.90;;;;;;5018914;28;20046;-80
2023/06/30 01:24:35;;;;;;;4.43;0.50;;;15.00;99.90;;;;;;5019802;28;20050;-80
2023/06/30 01:27:02;;;;;;;6.88;0.40;;;15.00;99.90;;;;;;4991892;28;20041;-80
2023/06/30 01:29:30;;;;;;;6.03;0.50;;;14.90;99.90;;;;;;5009762;28;20030;-80
2023/06/30 01:31:58;;;;;;;2.35;0.50;;;14.80;99.90;;;;;;5040670;28;20045;-80
2023/06/30 01:34:24;;;;;;;5.63;0.60;;;14.80;99.90;;;;;;5040448;28;20057;-79
2023/06/30 01:36:50;;;;;;;4.90;0.70;;;14.70;99.90;;;;;;5007723;28;20054;-79
2023/06/30 01:39:15;;;;;;;4.57;0.55;;;14.60;99.90;;;;;;4992847;28;20032;-80
2023/06/30 01:41:42;;;;;;;3.80;0.90;;;14.60;99.90;;;;;;4991077;28;20038;-80
2023/06/30 01:44:09;;;;;;;4.35;0.50;;;14.50;99.90;;;;;;5009720;28;20058;-80
2023/06/30 01:46:35;;;;;;;3.17;0.47;;;14.40;99.90;;;;;;5021638;28;20026;-79
2023/06/30 01:49:01;;;;;;;2.50;0.40;;;14.40;99.90;;;;;;5010173;28;20087;-80
2023/06/30 01:51:26;;;;;;;3.78;0.57;;;14.30;99.90;;;;;;5008479;28;20100;-79
2023/06/30 01:53:52;;;;;;;3.30;0.40;;;14.30;99.90;;;;;;5009592;28;20136;-81
2023/06/30 01:56:18;;;;;;;5.63;0.50;;;14.30;99.90;;;;;;5042047;28;20479;-78
2023/06/30 01:58:43;;;;;;;3.60;0.40;;;14.30;99.90;;;;;;5024948;28;20072;-80
2023/06/30 02:01:09;;;;;;;4.55;0.50;;;14.20;99.90;;;;;;4994071;28;20048;-80
2023/06/30 02:03:35;;;;;;;4.32;0.80;;;14.20;99.90;;;;;;4991449;28;20383;-79
2023/06/30 02:06:02;;;;;;;4.95;0.77;;;14.20;99.90;;;;;;5008573;28;20036;-78
2023/06/30 02:08:28;;;;;;;7.80;0.75;;;14.20;99.90;;;;;;5011215;28;20397;-80
2023/06/30 02:10:54;;;;;;;3.70;0.40;;;14.10;99.90;;;;;;4993991;28;20383;-78
2023/06/30 02:13:20;;;;;;;3.92;0.63;;;14.10;99.90;;;;;;4991490;28;20045;-80
2023/06/30 02:15:45;;;;;;;4.70;0.60;;;14.10;99.90;;;;;;5024464;28;20120;-80
2023/06/30 02:18:13;;;;;;;3.25;0.52;;;14.00;99.90;;;;;;5025533;28;20688;-81
2023/06/30 02:20:39;;;;;;;5.63;0.65;;;14.00;99.90;;;;;;4992759;28;20044;-80
2023/06/30 02:23:05;;;;;;;4.50;0.60;;;13.90;99.90;;;;;;5011605;28;20034;-81
2023/06/30 02:25:30;;;;;;;4.95;0.70;;;13.90;99.90;;;;;;5009171;28;20129;-81
2023/06/30 02:27:56;;;;;;;3.75;0.50;;;13.90;99.90;;;;;;5010953;28;20034;-81
2023/06/30 02:30:22;;;;;;;5.78;0.50;;;13.80;99.90;;;;;;5010194;28;20030;-80
2023/06/30 02:32:47;;;;;;;1.48;0.40;;;13.80;99.90;;;;;;4992203;28;20083;-80
2023/06/30 02:35:13;;;;;;;3.15;0.40;;;13.70;99.90;;;;;;4989338;28;20039;-81
2023/06/30 02:37:39;;;;;;;2.17;0.40;;;13.60;99.90;;;;;;5037331;28;20061;-80
2023/06/30 02:40:05;;;;;;;2.47;0.38;;;13.60;99.90;;;;;;5011383;28;20026;-81
2023/06/30 02:42:31;;;;;;;2.53;0.40;;;13.60;99.90;;;;;;4991782;28;20030;-80
2023/06/30 02:44:57;;;;;;;3.63;0.40;;;13.60;99.90;;;;;;4990397;28;20026;-80
2023/06/30 02:47:23;;;;;;;3.30;0.40;;;13.50;99.90;;;;;;4991828;28;20521;-80
2023/06/30 02:49:48;;;;;;;1.00;0.30;;;13.40;99.90;;;;;;4998562;28;20025;-81
2023/06/30 02:52:14;;;;;;;2.03;0.35;;;13.40;99.90;;;;;;5006124;28;20400;-80
2023/06/30 02:54:40;;;;;;;3.42;0.50;;;13.30;99.90;;;;;;5007939;28;20026;-80
2023/06/30 02:57:06;;;;;;;2.55;0.60;;;13.30;99.90;;;;;;4994121;28;20029;-79
2023/06/30 02:59:32;;;;;;;3.88;0.95;;;13.30;99.90;;;;;;4992931;28;20037;-78
2023/06/30 03:01:59;;;;;;;1.65;0.50;;;13.20;99.90;;;;;;5010105;28;20536;-79
2023/06/30 03:04:25;;;;;;;1.88;0.40;;;13.10;99.90;;;;;;4991771;28;20116;-80
2023/06/30 03:06:51;;;;;;;2.58;0.55;;;13.10;99.90;;;;;;5007181;28;20475;-80
2023/06/30 03:09:16;;;;;;;1.60;0.32;;;13.00;99.90;;;;;;5003495;28;20026;-77
2023/06/30 03:11:42;;;;;;;3.97;0.50;;;13.10;99.90;;;;;;4993045;28;20113;-79
2023/06/30 03:14:08;;;;;;;3.00;0.40;;;13.00;99.90;;;;;;5035115;28;20699;-80
2023/06/30 03:16:41;;;;;;;2.53;0.50;;;13.00;99.90;;;;;;5007605;28;20026;-79
2023/06/30 03:19:08;;;;;;;1.75;0.45;;;12.90;99.90;;;;;;5009543;28;20053;-78
2023/06/30 03:21:34;;;;;;;2.95;0.88;;;12.90;99.90;;;;;;4988154;28;20110;-79
2023/06/30 03:24:00;;;;;;;3.28;0.63;;;12.80;99.90;;;;;;5020886;28;20046;-80
2023/06/30 03:26:28;;;;;;;1.77;0.60;;;12.80;99.90;;;;;;4993349;28;20030;-79
2023/06/30 03:28:54;;;;;;;1.75;0.40;;;12.80;99.90;;;;;;4990227;28;20030;-80
2023/06/30 03:31:20;;;;;;;3.03;0.55;;;12.80;99.90;;;;;;4990887;28;20030;-80
2023/06/30 03:33:46;;;;;;;2.67;0.50;;;12.70;99.90;;;;;;4989204;28;20033;-80
2023/06/30 03:36:12;;;;;;;2.40;0.60;;;12.70;99.90;;;;;;5022413;28;20021;-79
2023/06/30 03:38:38;;;;;;;1.85;0.43;;;12.80;99.90;;;;;;5037862;28;20109;-77
2023/06/30 03:41:04;;;;;;;1.70;0.43;;;12.70;99.90;;;;;;5004294;28;20053;-80
2023/06/30 03:43:32;;;;;;;1.30;0.40;;;12.80;99.90;;;;;;5021758;28;20469;-78
2023/06/30 03:46:00;;;;;;;;;;;12.80;99.90;;;;;;4993176;28;20026;-78
2023/06/30 03:48:26;;;;;;;1.20;0.40;;;12.90;99.90;;;;;;5034426;28;19925;-79
2023/06/30 03:50:53;;;;;;;0.88;0.30;;;12.90;99.90;;;;;;5021493;28;20422;-80
2023/06/30 03:53:21;;;;;;;2.97;0.50;;;12.90;99.90;;;;;;5005233;28;20034;-81
2023/06/30 03:55:46;;;;;;;1.50;0.30;;;12.80;99.90;;;;;;4992101;28;20026;-81
2023/06/30 03:58:13;;;;;;;2.50;0.40;;;12.70;99.90;;;;;;5035587;28;20034;-81
2023/06/30 04:00:39;;;;;;;1.88;0.30;;;12.70;99.90;;;;;;5007366;28;20018;-80
2023/06/30 04:03:18;;;;;;;1.30;0.32;;;12.70;99.90;;;;;;5071190;28;20465;-81
2023/06/30 04:05:43;;;;;;;3.05;0.65;;;12.70;99.90;;;;;;5055494;28;20025;-81
2023/06/30 04:08:09;;;;;;;2.03;0.32;;;12.70;99.90;;;;;;5072389;28;20107;-80
2023/06/30 04:10:35;;;;;;;1.98;0.50;;;12.70;99.90;;;;;;5056989;28;20022;-81
2023/06/30 04:13:04;;;;;;;3.00;0.70;;;12.70;99.90;;;;;;5047054;28;20400;-81
2023/06/30 04:15:30;;;;;;;1.92;0.40;;;12.60;99.90;;;;;;5044516;28;20037;-80
2023/06/30 04:17:56;;;;;;;4.70;0.40;;;12.60;99.90;;;;;;5052660;28;20029;-81
2023/06/30 04:20:21;;;;;;;2.75;0.40;;;12.70;99.90;;;;;;5055448;28;20119;-81
2023/06/30 04:22:47;;;;;;;0.77;0.40;;;12.70;99.90;;;;;;5056147;28;20123;-80
2023/06/30 04:25:13;;;;;;;1.95;0.45;;;12.70;99.90;;;;;;5043462;28;20024;-80
2023/06/30 04:27:39;;;;;;;1.23;0.40;;;12.80;99.90;;;;;;5057311;28;20445;-80
2023/06/30 04:30:08;;;;;;;1.80;0.40;;;12.90;99.90;;;;;;5051102;28;20112;-80
2023/06/30 04:32:34;;;;;;;2.20;0.40;;;12.90;99.90;;;;;;5043696;28;20075;-81
2023/06/30 04:35:00;;;;;;;1.63;0.38;;;12.90;99.90;;;;;;5043911;28;20284;-80
2023/06/30 04:37:28;;;;;;;2.38;0.30;;;13.00;99.90;;;;;;5061649;28;20393;-80
2023/06/30 04:39:58;;;;;;;2.67;0.50;;;13.00;99.90;;;;;;5057452;28;20029;-79
2023/06/30 04:42:27;;;;;;;3.25;0.45;;;13.10;99.90;;;;;;5057044;28;20036;-80
2023/06/30 04:44:53;;;;;;;2.28;0.50;;;13.20;99.90;;;;;;5058737;28;20036;-80
2023/06/30 04:47:19;;;;;;;3.10;0.60;;;13.30;99.90;;;;;;5058305;28;20025;-80
2023/06/30 04:49:45;;;;;;;3.00;0.82;;;13.40;99.90;;;;;;5061462;28;20382;-81
2023/06/30 04:52:11;;;;;;;1.48;0.47;;;13.50;99.90;;;;;;5040221;28;20051;-80
2023/06/30 04:54:37;;;;;;;2.40;0.43;;;13.70;99.90;;;;;;5043311;28;20043;-80
2023/06/30 04:57:04;;;;;;;3.00;0.50;;;13.80;99.90;;;;;;5059153;28;20040;-80
2023/06/30 04:59:30;;;;;;;1.50;0.40;;;13.90;99.90;;;;;;5045870;28;20032;-81
2023/06/30 05:01:56;;;;;;;1.38;0.40;;;14.00;99.90;;;;;;5053874;28;20041;-81
2023/06/30 05:04:22;;;;;;;3.83;0.57;;;14.20;99.90;;;;;;5052526;28;20366;-80
2023/06/30 05:06:47;;;;;;;2.65;0.60;;;14.30;99.90;;;;;;5058380;28;20033;-79
2023/06/30 05:09:13;;;;;;;3.17;0.47;;;14.40;99.90;;;;;;5055618;28;20627;-80
2023/06/30 05:11:39;;;;;;;1.58;0.50;;;14.50;99.90;;;;;;5062753;28;20025;-80
2023/06/30 05:14:04;;;;;;;3.25;0.50;;;14.60;99.90;;;;;;5049259;28;20112;-80
2023/06/30 05:16:30;;;;;;;4.38;0.70;;;14.80;99.90;;;;;;5043817;28;20108;-81
2023/06/30 05:18:56;;;;;;;1.95;0.50;;;14.90;99.90;;;;;;5045938;28;20032;-81
2023/06/30 05:21:21;;;;;;;2.63;0.60;;;15.00;99.90;;;;;;5031220;28;20064;-81
2023/06/30 05:23:47;;;;;;;2.63;0.60;;;14.90;99.90;;;;;;5059765;28;20037;-80
2023/06/30 05:26:13;;;;;;;2.65;0.60;;;15.00;99.90;;;;;;5044253;28;20144;-82
2023/06/30 05:28:39;;;;;;;4.60;0.80;;;15.00;99.90;;;;;;5045766;28;20025;-82
2023/06/30 05:31:05;;;;;;;2.35;0.50;;;15.00;99.90;;;;;;5044803;28;20036;-81
2023/06/30 05:33:30;;;;;;;2.72;0.50;;;15.10;99.90;;;;;;5044685;28;20513;-81
2023/06/30 05:35:56;;;;;;;4.53;0.50;;;15.20;99.90;;;;;;5030764;28;20026;-81
2023/06/30 05:38:22;;;;;;;3.42;0.55;;;15.30;99.90;;;;;;5047401;28;20029;-81
2023/06/30 05:40:47;;;;;;;3.90;0.52;;;15.50;99.90;;;;;;5043726;28;20033;-81
2023/06/30 05:43:13;;;;;;;4.45;0.52;;;15.50;99.90;;;;;;5058958;28;20035;-80
2023/06/30 05:45:39;;;;;;;2.88;0.60;;;15.50;99.90;;;;;;5030801;28;20084;-80
2023/06/30 05:48:05;;;;;;;2.92;0.50;;;15.60;99.90;;;;;;5036738;28;20140;-81
2023/06/30 05:50:31;;;;;;;3.90;0.70;;;15.80;99.90;;;;;;5047755;28;20025;-81
2023/06/30 05:52:56;;;;;;;3.40;0.40;;;15.80;99.90;;;;;;5023635;28;20134;-81
2023/06/30 05:55:22;;;;;;;3.65;0.45;;;15.90;99.90;;;;;;5056392;28;20021;-81
2023/06/30 05:57:48;;;;;;;4.07;0.50;;;16.20;99.90;;;;;;5041111;28;20091;-82
2023/06/30 06:00:14;;;;;;;3.05;0.57;;;16.20;99.90;;;;;;5030555;28;20029;-81
2023/06/30 06:02:41;;;;;;;1.75;0.40;;;16.30;99.90;;;;;;5046869;28;20041;-81
2023/06/30 06:05:07;;;;;;;3.05;0.30;;;16.40;99.90;;;;;;5042253;28;20450;-82
2023/06/30 06:07:33;;;;;;;3.08;0.40;;;16.50;99.90;;;;;;5040325;28;20433;-82
2023/06/30 06:09:58;;;;;;;3.08;0.40;;;16.60;99.90;;;;;;5040566;28;20111;-81
2023/06/30 06:12:24;;;;;;;1.42;0.30;;;16.80;99.90;;;;;;5052659;28;20017;-82
2023/06/30 06:14:50;;;;;;;3.90;0.73;;;16.80;99.90;;;;;;5029214;28;20482;-80
2023/06/30 06:17:15;;;;;;;2.83;0.57;;;16.80;99.90;;;;;;5041620;28;20100;-80
2023/06/30 06:19:41;;;;;;;3.15;0.60;;;16.90;99.90;;;;;;5042126;28;20088;-80
2023/06/30 06:22:07;;;;;;;3.22;0.60;;;16.70;99.90;;;;;;5041152;28;20056;-80
2023/06/30 06:24:33;;;;;;;5.65;0.50;;;16.70;99.90;;;;;;5026258;28;20033;-81
2023/06/30 06:26:58;;;;;;;1.38;0.40;;;16.80;99.90;;;;;;5043861;28;20094;-81
2023/06/30 06:29:24;;;;;;;3.53;0.30;;;16.80;99.90;;;;;;5041716;28;20473;-80
2023/06/30 06:31:51;;;;;;;4.78;0.38;;;16.80;99.90;;;;;;5043167;28;20064;-81
2023/06/30 06:34:19;;;;;;;3.05;0.40;;;16.80;99.90;;;;;;5045187;28;20532;-80
2023/06/30 06:36:46;;;;;;;1.48;0.30;;;16.90;99.90;;;;;;5046449;28;20048;-81
2023/06/30 06:39:12;;;;;;;2.03;0.40;;;16.90;99.90;;;;;;5025060;28;20025;-80
2023/06/30 06:41:38;;;;;;;2.85;0.30;;;16.90;99.90;;;;;;5029947;28;20034;-81
2023/06/30 06:44:06;;;;;;;3.67;0.40;;;17.20;99.90;;;;;;5041494;28;20523;-80
2023/06/30 06:46:31;;;;;;;2.08;0.30;;;17.40;99.90;;;;;;5040514;28;20029;-81
2023/06/30 06:48:57;;;;;;;3.47;0.40;;;17.50;99.90;;;;;;5042772;28;20135;-80
2023/06/30 06:51:23;;;;;;;1.92;0.30;;;17.40;99.90;;;;;;5040864;28;20110;-81
2023/06/30 06:53:51;;;;;;;3.85;0.40;;;17.50;99.90;;;;;;5019748;28;20028;-81
2023/06/30 06:56:17;;;;;;;4.28;0.45;;;17.20;99.90;;;;;;5036630;28;20404;-80
2023/06/30 06:58:43;;;;;;;2.78;0.30;;;17.10;99.90;;;;;;5033070;28;20039;-80
2023/06/30 07:01:10;;;;;;;6.25;0.50;;;17.30;99.90;;;;;;5030145;28;20029;-80
2023/06/30 07:03:35;;;;;;;1.98;0.40;;;17.50;99.90;;;;;;5018317;28;20474;-80
2023/06/30 07:06:01;;;;;;;4.43;0.50;;;17.50;99.90;;;;;;5032479;28;20032;-80
2023/06/30 07:08:28;;;;;;;3.80;0.82;;;17.50;99.90;;;;;;5036695;28;20638;-80
2023/06/30 07:10:55;;;;;;;2.08;0.30;;;17.80;99.90;;;;;;5034741;28;20030;-81
2023/06/30 07:13:22;;;;;;;3.03;0.30;;;17.70;99.90;;;;;;5032643;28;20044;-81
2023/06/30 07:15:48;;;;;;;3.30;0.50;;;17.80;99.90;;;;;;5031978;28;20025;-81
2023/06/30 07:18:17;;;;;;;3.22;0.40;;;17.50;99.90;;;;;;5037675;28;20029;-81
2023/06/30 07:20:47;;;;;;;3.27;0.30;;;17.80;99.90;;;;;;5030498;28;20127;-81
2023/06/30 07:23:13;;;;;;;4.07;0.30;;;17.80;99.90;;;;;;5037163;28;20064;-81
2023/06/30 07:25:39;;;;;;;2.65;0.30;;;18.10;99.90;;;;;;5036420;28;22749;-81
2023/06/30 07:28:05;;;;;;;3.50;0.30;;;18.10;99.90;;;;;;5020208;28;20034;-80
2023/06/30 07:30:30;;;;;;;3.83;0.30;;;18.30;99.90;;;;;;5049245;28;20071;-80
2023/06/30 07:32:56;;;;;;;1.58;0.30;;;18.30;99.90;;;;;;5038969;28;20061;-81
2023/06/30 07:35:23;;;;;;;2.03;0.30;;;18.20;99.90;;;;;;5035539;28;20044;-81
2023/06/30 07:37:49;;;;;;;2.45;0.30;;;18.00;99.90;;;;;;5036612;28;20059;-80
2023/06/30 07:40:16;;;;;;;4.32;0.40;;;18.10;99.90;;;;;;5037275;28;20584;-81
2023/06/30 07:42:45;;;;;;;3.50;0.40;;;18.10;99.90;;;;;;5021876;28;20037;-81
2023/06/30 07:45:17;;;;;;;3.05;0.30;;;18.30;99.90;;;;;;5035265;28;20477;-81
2023/06/30 07:47:48;;;;;;;2.10;0.30;;;18.40;99.90;;;;;;5039753;28;20751;-81
2023/06/30 07:50:15;;;;;;;2.38;0.32;;;19.00;99.90;;;;;;5027745;28;20090;-82
2023/06/30 07:52:45;;;;;;;3.85;0.40;;;18.70;99.90;;;;;;5035649;28;20037;-80
2023/06/30 07:55:13;;;;;;;5.13;0.40;;;18.50;99.90;;;;;;5033521;28;20021;-81
2023/06/30 07:57:39;;;;;;;2.92;0.28;;;18.80;99.90;;;;;;5047423;28;20030;-82
2023/06/30 08:00:06;;;;;;;2.90;0.40;;;18.70;99.90;;;;;;5019072;28;20469;-81
2023/06/30 08:02:38;;;;;;;0.90;0.20;;;18.80;99.90;;;;;;5047432;28;20045;-80
2023/06/30 08:05:04;;;;;;;1.40;0.30;;;19.40;99.90;;;;;;5034830;28;20085;-82
2023/06/30 08:07:30;;;;;;;1.88;0.30;;;19.50;99.90;;;;;;5031863;28;20029;-81
2023/06/30 08:09:56;;;;;;;2.15;0.20;;;19.00;99.90;;;;;;5044894;28;20036;-81
2023/06/30 08:12:22;;;;;;;1.23;0.20;;;19.40;99.90;;;;;;5030977;28;20029;-81
2023/06/30 08:14:48;;;;;;;1.88;0.20;;;19.50;99.90;;;;;;5033198;28;20124;-81
2023/06/30 08:17:15;;;;;;;2.17;0.20;;;19.50;99.90;;;;;;5037018;28;20025;-81
2023/06/30 08:19:41;;;;;;;1.42;0.28;;;19.60;99.90;;;;;;5036242;28;20454;-80
2023/06/30 08:22:09;;;;;;;2.10;0.22;;;19.30;99.90;;;;;;5037512;28;20037;-81
2023/06/30 08:24:34;;;;;;;1.95;0.25;;;19.40;99.90;;;;;;5033710;28;20036;-81
2023/06/30 08:27:00;;;;;;;3.05;0.25;;;19.60;99.90;;;;;;5038156;28;20049;-82
2023/06/30 08:29:26;;;;;;;2.05;0.30;;;19.60;99.90;;;;;;5038895;28;20056;-81
2023/06/30 08:31:52;;;;;;;1.67;0.17;;;19.70;99.90;;;;;;5022908;28;20086;-82
2023/06/30 08:34:17;;;;;;;1.65;0.20;;;20.00;99.90;;;;;;5019494;28;20409;-82
2023/06/30 08:36:43;;;;;;;1.42;0.20;;;19.90;99.90;;;;;;5036123;28;20029;-81
2023/06/30 08:39:09;;;;;;;2.47;0.25;;;19.90;99.90;;;;;;5034098;28;20425;-82
2023/06/30 08:41:36;;;;;;;1.92;0.20;;;20.30;99.90;;;;;;5038873;28;20498;-81
2023/06/30 08:44:02;;;;;;;2.15;0.20;;;19.90;99.90;;;;;;5029902;28;20049;-81
2023/06/30 08:46:29;;;;;;;1.08;0.30;;;20.30;99.90;;;;;;5033869;28;20540;-82
2023/06/30 08:48:54;;;;;;;3.13;0.13;;;20.30;99.90;;;;;;5022592;28;20096;-81
2023/06/30 08:51:21;;;;;;;1.08;0.10;;;20.70;99.90;;;;;;5040433;28;20379;-81
2023/06/30 08:53:48;;;;;;;3.05;0.20;;;20.70;99.90;;;;;;5039204;28;20172;-81
2023/06/30 08:56:15;;;;;;;2.05;0.20;;;20.60;99.90;;;;;;5035518;28;20537;-82
2023/06/30 08:58:41;;;;;;;1.60;0.20;;;20.50;99.90;;;;;;5038396;28;20039;-80
2023/06/30 09:01:08;;;;;;;3.42;0.30;;;20.80;99.90;;;;;;5034248;28;20458;-82
2023/06/30 09:03:36;;;;;;;2.38;0.30;;;20.70;99.90;;;;;;5040143;28;20091;-82
2023/06/30 09:06:02;;;;;;;1.05;0.20;;;20.20;99.90;;;;;;5036968;28;20033;-83
2023/06/30 09:08:41;;;;;;;1.58;0.40;;;20.20;99.90;;;;;;5042786;28;20063;-81
2023/06/30 09:11:08;;;;;;;2.72;0.30;;;20.40;99.90;;;;;;5031716;28;20112;-82
2023/06/30 09:13:37;;;;;;;1.73;0.15;;;20.40;99.90;;;;;;5035568;28;20095;-82
2023/06/30 09:16:06;;;;;;;1.55;0.28;;;20.40;99.90;;;;;;5035250;28;20033;-81
2023/06/30 09:18:33;;;;;;;1.17;0.20;;;20.10;99.90;;;;;;5032460;28;20123;-82
2023/06/30 09:20:59;;;;;;;3.90;0.30;;;20.60;99.90;;;;;;5034372;28;20055;-81
2023/06/30 09:23:27;;;;;;;1.50;0.20;;;20.70;99.90;;;;;;5027404;28;20028;-82
2023/06/30 09:25:53;;;;;;;1.00;0.20;;;21.10;99.90;;;;;;5039425;28;20024;-82
2023/06/30 09:28:18;;;;;;;1.38;0.20;;;21.20;99.90;;;;;;5023135;28;20073;-82
2023/06/30 09:30:46;;;;;;;1.30;0.10;;;20.70;99.90;;;;;;5040814;28;20108;-82
2023/06/30 09:33:16;;;;;;;1.35;0.20;;;20.90;99.90;;;;;;5034945;28;20045;-82
2023/06/30 09:35:45;;;;;;;1.50;0.25;;;20.70;99.90;;;;;;5039611;28;20432;-82
2023/06/30 09:38:16;;;;;;;1.48;0.20;;;20.70;99.90;;;;;;5018817;28;20071;-82
2023/06/30 09:40:43;;;;;;;0.47;0.10;;;20.40;99.90;;;;;;5033573;28;20057;-82
2023/06/30 09:43:17;;;;;;;2.50;0.30;;;20.70;99.90;;;;;;5034650;28;20045;-82
2023/06/30 09:45:44;;;;;;;1.55;0.30;;;20.40;99.90;;;;;;5038320;28;20083;-81
2023/06/30 09:48:11;;;;;;;1.55;0.20;;;20.70;99.90;;;;;;5038095;28;20040;-82
2023/06/30 09:50:37;;;;;;;4.07;0.28;;;20.80;99.90;;;;;;5036993;28;20086;-82
2023/06/30 09:53:03;;;;;;;1.40;0.20;;;20.60;99.90;;;;;;5040751;28;20029;-82
2023/06/30 09:55:28;;;;;;;0.98;0.20;;;21.10;99.90;;;;;;5039594;28;20029;-82
2023/06/30 09:57:57;;;;;;;2.20;0.35;;;21.40;99.90;;;;;;5034667;28;20817;-80
2023/06/30 10:00:25;;;;;;;0.68;0.20;;;21.60;99.90;;;;;;5036286;28;20047;-81
2023/06/30 10:03:05;;;;;;;2.28;0.20;;;21.70;99.90;;;;;;5035904;28;20072;-80
2023/06/30 10:05:31;;;;;;;2.50;0.20;;;21.40;99.90;;;;;;5033938;28;20444;-81
2023/06/30 10:07:59;;;;;;;1.90;0.28;;;20.90;99.90;;;;;;5035908;28;20060;-81
2023/06/30 10:10:26;;;;;;;0.93;0.17;;;20.90;99.90;;;;;;5040386;28;20110;-81
2023/06/30 10:12:53;;;;;;;1.05;0.20;;;21.40;99.90;;;;;;5039984;28;20029;-79
2023/06/30 10:15:19;;;;;;;1.88;0.20;;;22.40;99.90;;;;;;5024694;28;20339;-80
2023/06/30 10:17:47;;;;;;;1.42;0.20;;;21.80;99.90;;;;;;5025538;28;20079;-81
2023/06/30 10:20:13;;;;;;;1.17;0.20;;;21.20;99.90;;;;;;5018569;28;20028;-81
2023/06/30 10:22:38;;;;;;;1.13;0.28;;;21.20;99.90;;;;;;5037914;28;20034;-81
2023/06/30 10:25:10;;;;;;;1.38;0.20;;;20.90;99.90;;;;;;5021844;28;20052;-80
2023/06/30 10:27:36;;;;;;;1.08;0.20;;;20.80;99.90;;;;;;5032846;28;20530;-81
2023/06/30 10:30:02;;;;;;;1.85;0.20;;;20.80;99.90;;;;;;5047666;28;20036;-81
2023/06/30 10:32:28;;;;;;;1.52;0.10;;;21.00;99.90;;;;;;5032738;28;20354;-81
2023/06/30 10:34:56;;;;;;;1.55;0.20;;;20.80;99.90;;;;;;5035447;28;20036;-82
2023/06/30 10:37:22;;;;;;;1.55;0.20;;;20.40;99.90;;;;;;5037457;28;20041;-81
2023/06/30 10:39:47;;;;;;;1.27;0.10;;;20.80;99.90;;;;;;5040764;28;20377;-81
2023/06/30 10:42:15;;;;;;;0.80;0.13;;;21.00;99.90;;;;;;5034469;28;20519;-82
2023/06/30 10:44:46;;;;;;;1.33;0.20;;;21.00;99.90;;;;;;5035077;28;20171;-81
2023/06/30 10:47:12;;;;;;;1.40;0.30;;;20.80;99.90;;;;;;5047099;28;20514;-81
2023/06/30 10:49:40;;;;;;;1.98;0.20;;;20.60;99.90;;;;;;5024141;28;20025;-81
2023/06/30 10:52:28;;;;;;;2.50;0.30;;;20.30;99.90;;;;;;5041840;28;20109;-81
2023/06/30 10:54:54;;;;;;;2.83;0.30;;;20.30;99.90;;;;;;5018290;28;20045;-82
2023/06/30 10:57:24;;;;;;;1.90;0.30;;;20.40;99.90;;;;;;5035874;28;20505;-81
2023/06/30 11:00:17;;;;;;;2.58;0.30;;;20.20;99.90;;;;;;5035779;28;20033;-81
2023/06/30 11:02:52;;;;;;;2.00;0.30;;;20.40;99.90;;;;;;5014460;28;20691;-81
2023/06/30 11:05:22;;;;;;;0.90;0.30;;;20.20;99.90;;;;;;5049060;28;20040;-81
2023/06/30 11:08:07;;;;;;;1.35;0.30;;;20.50;99.90;;;;;;5033247;28;20036;-81
2023/06/30 11:10:32;;;;;;;2.80;0.30;;;20.60;99.90;;;;;;5034269;28;20550;-81
2023/06/30 11:13:00;;;;;;;2.58;0.32;;;21.00;99.90;;;;;;5036566;28;20025;-82
2023/06/30 11:15:37;;;;;;;1.40;0.30;;;21.00;99.90;;;;;;5032039;28;20052;-81
2023/06/30 11:18:05;;;;;;;1.30;0.30;;;21.40;99.90;;;;;;5037087;28;20351;-81
2023/06/30 11:20:32;;;;;;;1.45;0.68;;;22.10;99.90;;;;;;5034402;28;20389;-81
2023/06/30 11:23:06;;;;;;;0.90;0.20;;;22.20;99.90;;;;;;5036303;28;20303;-82
2023/06/30 11:25:33;;;;;;;1.67;0.25;;;23.10;99.90;;;;;;5038570;28;20040;-81
2023/06/30 11:28:01;;;;;;;2.50;0.40;;;22.90;99.90;;;;;;5032748;28;20031;-81
2023/06/30 11:30:31;;;;;;;2.60;0.30;;;22.40;99.90;;;;;;5037900;28;20033;-82
2023/06/30 11:32:58;;;;;;;;;;;22.00;99.90;;;;;;5037461;28;20028;-82
2023/06/30 11:35:29;;;;;;;3.08;0.40;;;22.20;99.90;;;;;;5032486;28;19921;-82
2023/06/30 11:37:55;;;;;;;2.42;0.30;;;22.40;99.90;;;;;;5038404;28;20033;-82
2023/06/30 11:40:21;;;;;;;2.08;0.20;;;22.50;99.90;;;;;;5031616;28;20053;-81
2023/06/30 11:42:48;;;;;;;1.88;0.22;;;22.70;99.90;;;;;;5035286;28;20228;-81
2023/06/30 11:45:19;;;;;;;1.27;0.20;;;22.90;99.90;;;;;;5037273;28;20021;-82
2023/06/30 11:47:51;;;;;;;3.53;0.30;;;23.00;99.90;;;;;;5039862;28;20551;-82
2023/06/30 11:50:18;;;;;;;1.90;0.22;;;22.80;99.90;;;;;;5029315;28;20067;-81
2023/06/30 11:52:45;;;;;;;0.82;0.20;;;23.30;99.90;;;;;;5040173;28;20394;-82
2023/06/30 11:55:12;;;;;;;2.13;0.30;;;23.90;99.90;;;;;;5024183;28;20117;-83
2023/06/30 11:57:40;;;;;;;1.20;0.20;;;22.70;99.90;;;;;;5036322;28;20029;-82
2023/06/30 12:00:17;;;;;;;2.42;0.40;;;22.50;99.90;;;;;;5038454;28;20041;-82
2023/06/30 12:02:57;;;;;;;2.35;0.40;;;22.20;99.90;;;;;;5033197;28;20041;-81
2023/06/30 12:05:25;;;;;;;1.05;0.30;;;21.80;99.90;;;;;;5030518;28;20065;-81
2023/06/30 12:07:52;;;;;;;1.20;0.20;;;21.70;99.90;;;;;;5031433;28;20500;-79
2023/06/30 12:10:18;;;;;;;3.35;0.40;;;22.60;99.90;;;;;;5034339;28;20029;-82
2023/06/30 12:12:53;;;;;;;4.20;0.40;;;22.80;99.90;;;;;;5033508;28;23031;-83
2023/06/30 12:15:18;;;;;;;1.48;0.30;;;22.60;99.90;;;;;;5031057;28;20076;-81
2023/06/30 12:17:44;;;;;;;2.03;0.40;;;23.20;99.90;;;;;;5034713;28;20064;-82
2023/06/30 12:20:11;;;;;;;2.47;0.60;;;22.60;99.90;;;;;;5031190;28;20023;-82
2023/06/30 12:22:44;;;;;;;4.10;0.50;;;22.70;99.90;;;;;;5030703;28;20120;-82
2023/06/30 12:25:11;;;;;;;1.08;0.30;;;23.00;99.90;;;;;;5027340;28;20076;-81
2023/06/30 12:27:43;;;;;;;2.78;0.50;;;23.60;99.90;;;;;;5038323;28;20032;-81
2023/06/30 12:30:16;;;;;;;1.85;0.40;;;23.60;99.90;;;;;;5025199;28;20116;-82
2023/06/30 12:32:43;;;;;;;6.57;0.60;;;23.40;99.90;;;;;;5022631;28;20466;-81
2023/06/30 12:35:10;;;;;;;3.10;0.40;;;23.00;99.90;;;;;;5036105;28;20025;-83
2023/06/30 12:37:36;;;;;;;2.97;0.40;;;23.00;99.90;;;;;;5021605;28;20021;-82
2023/06/30 12:40:03;;;;;;;1.88;0.47;;;22.70;99.90;;;;;;5035932;28;20029;-82
2023/06/30 12:42:31;;;;;;;3.80;0.60;;;22.70;99.90;;;;;;5020357;28;20916;-81
2023/06/30 12:44:57;;;;;;;2.60;0.43;;;22.50;99.90;;;;;;5040781;28;20040;-82
2023/06/30 12:47:23;;;;;;;2.25;0.65;;;22.90;99.90;;;;;;5042704;28;20025;-83
2023/06/30 12:49:49;;;;;;;3.30;0.50;;;22.40;99.90;;;;;;5037067;28;20471;-82